Time;durP1;ratioP1;P1;durP2;ratioP2;P2;SDS_P1;SDS_P2;PMS_P1;PMS_P2;Temp;Humidity;BMP_temperature;BMP_pressure;BME280_temperature;BME280_humidity;BME280_pressure;Samples;Min_cycle;Max_cycle;Signal;HPM_P1;HPM_P2
2021/12/25 00:00:53;;;;;;;26.30;7.47;;;6.80;99.90;;;;;;5051507;28;20180;-58
2021/12/25 00:03:19;;;;;;;28.30;7.43;;;6.80;99.90;;;;;;5051433;28;20188;-57
2021/12/25 00:05:51;;;;;;;24.00;5.93;;;6.70;99.90;;;;;;5051491;28;20660;-57
2021/12/25 00:08:21;;;;;;;25.50;7.77;;;6.60;99.90;;;;;;5051237;28;20181;-56
2021/12/25 00:10:47;;;;;;;21.40;6.07;;;6.50;99.90;;;;;;5051263;28;20204;-56
2021/12/25 00:13:14;;;;;;;13.63;6.00;;;6.50;99.90;;;;;;5051147;28;20632;-56
2021/12/25 00:15:40;;;;;;;18.33;6.70;;;6.40;99.90;;;;;;5051162;28;20200;-57
2021/12/25 00:18:05;;;;;;;18.00;6.40;;;6.40;99.90;;;;;;5051073;28;20161;-57
2021/12/25 00:20:31;;;;;;;37.40;12.47;;;6.30;99.90;;;;;;5049548;28;20180;-57
2021/12/25 00:22:59;;;;;;;25.23;8.80;;;6.40;99.90;;;;;;5050929;28;20227;-56
2021/12/25 00:25:25;;;;;;;38.30;11.53;;;6.40;99.90;;;;;;5051171;28;20543;-56
2021/12/25 00:28:16;;;;;;;25.60;10.07;;;6.50;99.90;;;;;;5050769;28;20243;-58
2021/12/25 00:30:58;;;;;;;34.97;10.03;;;6.50;99.90;;;;;;5050874;28;20296;-58
2021/12/25 00:33:52;;;;;;;88.53;8.50;;;6.50;99.90;;;;;;5050899;28;20173;-56
2021/12/25 00:36:20;;;;;;;46.80;7.33;;;6.40;99.90;;;;;;5050810;28;20202;-56
2021/12/25 00:38:48;;;;;;;34.40;6.00;;;6.20;99.90;;;;;;5050681;28;20165;-58
2021/12/25 00:41:17;;;;;;;28.47;9.93;;;6.10;99.90;;;;;;5050809;28;20215;-56
2021/12/25 00:43:43;;;;;;;26.27;10.60;;;6.10;99.90;;;;;;5050713;28;20177;-57
2021/12/25 00:46:10;;;;;;;31.33;10.67;;;6.10;99.90;;;;;;5050731;28;20177;-58
2021/12/25 00:48:36;;;;;;;30.03;9.37;;;6.20;99.90;;;;;;5050603;28;20276;-58
2021/12/25 00:51:02;;;;;;;25.80;9.70;;;6.20;99.90;;;;;;5050711;28;20164;-58
2021/12/25 00:53:28;;;;;;;30.80;10.03;;;5.90;99.90;;;;;;5050690;28;20173;-58
2021/12/25 00:55:54;;;;;;;26.00;10.93;;;6.10;99.90;;;;;;5050591;28;20220;-58
2021/12/25 00:58:20;;;;;;;25.80;9.57;;;6.10;99.90;;;;;;5050533;28;20272;-58
2021/12/25 01:00:46;;;;;;;26.67;7.87;;;6.10;99.90;;;;;;5050866;28;20662;-58
2021/12/25 01:03:12;;;;;;;28.43;9.33;;;6.10;99.90;;;;;;5050486;28;20667;-58
2021/12/25 01:05:37;;;;;;;24.03;9.97;;;6.00;99.90;;;;;;5050463;28;20173;-58
2021/12/25 01:08:05;;;;;;;20.53;6.80;;;6.10;99.90;;;;;;5050557;28;20169;-59
2021/12/25 01:10:33;;;;;;;16.63;6.70;;;6.20;99.90;;;;;;5050378;28;20212;-59
2021/12/25 01:13:07;;;;;;;17.83;7.73;;;6.20;99.90;;;;;;5049172;28;20181;-58
2021/12/25 01:15:58;;;;;;;25.27;9.30;;;6.10;99.90;;;;;;5050246;28;20183;-59
2021/12/25 01:36:56;;;;;;;12.50;5.53;;;6.10;99.90;;;;;;5054214;28;20161;-58
2021/12/25 01:50:11;;;;;;;17.53;7.40;;;6.00;99.90;;;;;;5053854;28;20212;-58
2021/12/25 01:52:37;;;;;;;15.40;5.87;;;6.10;99.90;;;;;;5053987;28;20624;-58
2021/12/25 01:55:12;;;;;;;15.77;6.30;;;6.10;99.90;;;;;;5054021;28;20165;-58
2021/12/25 01:57:37;;;;;;;16.60;6.50;;;6.10;99.90;;;;;;5053905;28;20675;-58
2021/12/25 02:00:34;;;;;;;12.30;6.80;;;6.00;99.90;;;;;;5053843;28;20197;-58
2021/12/25 02:03:02;;;;;;;16.67;6.57;;;6.10;99.90;;;;;;5052785;28;20267;-58
2021/12/25 02:05:28;;;;;;;16.57;7.00;;;6.20;99.90;;;;;;5053586;28;20288;-59
2021/12/25 02:07:53;;;;;;;14.70;6.30;;;6.10;99.90;;;;;;5053789;28;20201;-58
2021/12/25 02:10:19;;;;;;;14.00;6.77;;;6.10;99.90;;;;;;5053419;28;20671;-58
2021/12/25 02:12:46;;;;;;;12.33;6.03;;;6.10;99.90;;;;;;5053658;28;20561;-58
2021/12/25 02:15:17;;;;;;;17.50;6.40;;;6.00;99.90;;;;;;5053302;28;20189;-57
2021/12/25 02:20:21;;;;;;;14.27;6.10;;;6.00;99.90;;;;;;5053594;28;20173;-57
2021/12/25 02:22:48;;;;;;;10.40;6.17;;;6.00;99.90;;;;;;5053441;28;20188;-58
2021/12/25 02:25:14;;;;;;;16.17;6.47;;;6.00;99.90;;;;;;5053310;28;20200;-57
2021/12/25 02:27:40;;;;;;;16.70;6.63;;;6.00;99.90;;;;;;5052960;28;20725;-57
2021/12/25 02:30:07;;;;;;;19.57;7.90;;;6.10;99.90;;;;;;5053348;28;20223;-57
2021/12/25 02:32:33;;;;;;;12.17;7.00;;;6.20;99.90;;;;;;5053265;28;20269;-57
2021/12/25 02:34:59;;;;;;;14.23;7.57;;;6.30;99.90;;;;;;5053187;28;20176;-57
2021/12/25 02:37:25;;;;;;;15.57;7.00;;;6.30;99.90;;;;;;5050104;28;20177;-57
2021/12/25 02:39:52;;;;;;;19.50;7.83;;;6.30;99.90;;;;;;5052938;28;20177;-57
2021/12/25 02:42:18;;;;;;;16.47;7.37;;;6.20;99.90;;;;;;5052931;28;20225;-57
2021/12/25 02:44:44;;;;;;;14.27;7.03;;;6.20;99.90;;;;;;5053113;28;20176;-57
2021/12/25 02:47:16;;;;;;;18.37;6.83;;;6.20;99.90;;;;;;5053035;28;20184;-57
2021/12/25 02:49:50;;;;;;;21.93;9.10;;;6.10;99.90;;;;;;5052859;28;20288;-57
2021/12/25 02:52:16;;;;;;;27.37;8.93;;;6.10;99.90;;;;;;5052988;28;20304;-57
2021/12/25 02:54:43;;;;;;;23.87;9.70;;;6.20;99.90;;;;;;5052858;28;20283;-57
2021/12/25 02:57:12;;;;;;;25.00;9.27;;;6.30;99.90;;;;;;5052723;28;20268;-57
2021/12/25 02:59:38;;;;;;;25.63;9.70;;;6.40;99.90;;;;;;5052713;28;20707;-57
2021/12/25 03:02:14;;;;;;;23.87;10.03;;;6.40;99.90;;;;;;5052398;28;20223;-57
2021/12/25 03:04:44;;;;;;;29.80;10.50;;;6.50;99.90;;;;;;5052723;28;20279;-57
2021/12/25 03:07:10;;;;;;;25.63;10.93;;;6.60;99.90;;;;;;5052574;28;20193;-57
2021/12/25 03:09:36;;;;;;;26.03;10.30;;;6.70;99.90;;;;;;5052524;28;20217;-57
2021/12/25 03:12:05;;;;;;;27.53;10.13;;;6.80;99.90;;;;;;5052452;28;20535;-57
2021/12/25 03:15:07;;;;;;;23.73;10.30;;;6.80;99.90;;;;;;5052484;28;20169;-57
2021/12/25 03:17:34;;;;;;;19.90;9.30;;;6.90;99.90;;;;;;5052411;28;20191;-57
2021/12/25 03:20:00;;;;;;;24.23;11.07;;;6.90;99.90;;;;;;5052346;28;20173;-57
2021/12/25 03:22:26;;;;;;;28.30;11.17;;;7.00;99.90;;;;;;5052323;28;20169;-57
2021/12/25 03:24:52;;;;;;;29.63;11.07;;;6.90;99.90;;;;;;5052157;28;20260;-57
2021/12/25 03:27:18;;;;;;;36.50;12.20;;;6.90;99.90;;;;;;5052100;28;20256;-57
2021/12/25 03:29:44;;;;;;;25.23;10.73;;;6.90;99.90;;;;;;5052050;28;20233;-57
2021/12/25 03:32:10;;;;;;;21.57;11.00;;;6.80;99.90;;;;;;5052042;28;20604;-57
2021/12/25 03:34:37;;;;;;;27.37;11.23;;;6.70;99.90;;;;;;5052409;28;20173;-57
2021/12/25 03:37:04;;;;;;;29.10;11.43;;;6.70;99.90;;;;;;5052175;28;20173;-57
2021/12/25 03:39:30;;;;;;;25.13;11.50;;;6.80;99.90;;;;;;5052019;28;20169;-57
2021/12/25 03:41:58;;;;;;;29.47;11.03;;;6.70;99.90;;;;;;5052055;28;20173;-57
2021/12/25 03:44:25;;;;;;;26.10;11.40;;;6.70;99.90;;;;;;5051885;28;20192;-57
2021/12/25 03:46:53;;;;;;;32.10;11.57;;;6.70;99.90;;;;;;5051800;28;20669;-57
2021/12/25 03:49:34;;;;;;;24.07;11.50;;;6.70;99.90;;;;;;5051634;28;20266;-57
2021/12/25 03:57:38;;;;;;;26.17;10.83;;;6.70;99.90;;;;;;5051967;28;20671;-57
2021/12/25 04:00:07;;;;;;;27.40;11.37;;;6.70;99.90;;;;;;5051964;28;20176;-57
2021/12/25 04:02:49;;;;;;;29.13;11.27;;;6.60;99.90;;;;;;5051550;28;20177;-57
2021/12/25 04:05:18;;;;;;;27.37;10.53;;;6.70;99.90;;;;;;5051556;28;20185;-57
2021/12/25 04:08:00;;;;;;;23.90;10.57;;;6.80;99.90;;;;;;5051354;28;20552;-57
2021/12/25 04:10:27;;;;;;;25.43;11.37;;;6.70;99.90;;;;;;5051260;28;20213;-57
2021/12/25 04:12:55;;;;;;;26.60;11.47;;;6.70;99.90;;;;;;5051638;28;20204;-57
2021/12/25 04:15:21;;;;;;;30.00;11.70;;;6.70;99.90;;;;;;5051236;28;20636;-57
2021/12/25 04:17:47;;;;;;;28.87;10.90;;;6.60;99.90;;;;;;5051253;28;20181;-57
2021/12/25 04:20:12;;;;;;;30.73;12.10;;;6.70;99.90;;;;;;5051181;28;20170;-57
2021/12/25 04:22:58;;;;;;;35.53;12.83;;;6.70;99.90;;;;;;5051229;28;20169;-57
2021/12/25 04:25:28;;;;;;;34.63;12.93;;;6.80;99.90;;;;;;5051577;28;20192;-57
2021/12/25 04:27:56;;;;;;;34.57;13.30;;;6.80;99.90;;;;;;5051149;28;20220;-57
2021/12/25 04:30:33;;;;;;;38.57;14.00;;;6.90;99.90;;;;;;5050950;28;20217;-57
2021/12/25 05:05:38;;;;;;;105.47;11.87;;;7.00;99.90;;;;;;5050201;28;20542;-57
2021/12/25 05:08:04;;;;;;;74.27;12.47;;;7.20;99.90;;;;;;5050106;28;20181;-57
2021/12/25 05:10:30;;;;;;;154.63;15.77;;;7.20;99.90;;;;;;5050541;28;20310;-57
2021/12/25 05:12:56;;;;;;;90.80;12.83;;;7.20;99.90;;;;;;5050579;28;20200;-57
2021/12/25 05:15:21;;;;;;;265.77;16.97;;;7.20;99.90;;;;;;5050400;28;20640;-57
2021/12/25 05:17:47;;;;;;;165.97;14.17;;;7.30;99.90;;;;;;5050519;28;20648;-57
2021/12/25 05:20:13;;;;;;;102.63;13.20;;;7.20;99.90;;;;;;5050938;28;20192;-57
2021/12/25 05:22:39;;;;;;;88.70;12.77;;;7.30;99.90;;;;;;5050461;28;20196;-57
2021/12/25 05:25:05;;;;;;;101.97;13.23;;;7.30;99.90;;;;;;5050244;28;20213;-57
2021/12/25 05:27:31;;;;;;;84.47;13.40;;;7.30;99.90;;;;;;5050247;28;20276;-57
2021/12/25 05:29:56;;;;;;;52.80;13.37;;;7.30;99.90;;;;;;5050293;28;20213;-57
2021/12/25 05:32:22;;;;;;;49.80;12.60;;;7.40;99.90;;;;;;5050403;28;20169;-57
2021/12/25 05:34:48;;;;;;;49.03;12.83;;;7.40;99.90;;;;;;5050381;28;20181;-57
2021/12/25 05:37:14;;;;;;;41.77;12.67;;;7.40;99.90;;;;;;5050306;28;20280;-57
2021/12/25 05:39:43;;;;;;;50.17;12.10;;;7.40;99.90;;;;;;5050187;28;20181;-57
2021/12/25 05:42:09;;;;;;;62.40;12.20;;;7.50;99.90;;;;;;5050224;28;20215;-57
2021/12/25 05:44:35;;;;;;;62.83;13.17;;;7.50;99.90;;;;;;5050362;28;20177;-57
2021/12/25 05:47:01;;;;;;;58.53;13.60;;;7.50;99.90;;;;;;5050014;28;20260;-57
2021/12/25 05:49:27;;;;;;;57.63;12.87;;;7.40;99.90;;;;;;5050148;28;20200;-57
2021/12/25 05:51:53;;;;;;;66.27;12.90;;;7.40;99.90;;;;;;5050145;28;20672;-57
2021/12/25 05:54:19;;;;;;;50.93;12.83;;;7.50;99.90;;;;;;5050164;28;20303;-57
2021/12/25 05:56:44;;;;;;;55.70;13.63;;;7.40;99.90;;;;;;5050145;28;20174;-57
2021/12/25 05:59:10;;;;;;;83.50;13.67;;;7.50;99.90;;;;;;5050061;28;20208;-57
2021/12/25 06:01:36;;;;;;;54.50;14.40;;;7.40;99.90;;;;;;5050079;28;20169;-56
2021/12/25 06:04:02;;;;;;;56.63;14.27;;;7.50;99.90;;;;;;5050151;28;20180;-56
2021/12/25 06:06:27;;;;;;;50.60;13.27;;;7.50;99.90;;;;;;5050013;28;20683;-56
2021/12/25 06:08:53;;;;;;;57.93;13.77;;;7.50;99.90;;;;;;5049971;28;20683;-56
2021/12/25 06:11:22;;;;;;;40.07;11.50;;;7.50;99.90;;;;;;5049929;28;20177;-56
2021/12/25 06:13:57;;;;;;;48.70;11.30;;;7.30;99.90;;;;;;5049911;28;20612;-57
2021/12/25 06:16:23;;;;;;;50.17;11.03;;;7.60;99.90;;;;;;5048949;28;20183;-57
2021/12/25 06:18:49;;;;;;;59.10;12.53;;;7.70;99.90;;;;;;5052526;28;20248;-57
2021/12/25 06:21:15;;;;;;;45.07;12.17;;;7.70;99.90;;;;;;5053730;28;20568;-57
2021/12/25 06:23:40;;;;;;;223.33;17.60;;;7.80;99.90;;;;;;5053500;28;20553;-57
2021/12/25 06:26:06;;;;;;;73.10;12.40;;;7.80;99.90;;;;;;5053371;28;20169;-57
2021/12/25 06:28:32;;;;;;;53.23;12.20;;;7.80;99.90;;;;;;5053088;28;20229;-57
2021/12/25 06:30:58;;;;;;;51.63;12.80;;;7.80;99.90;;;;;;5053220;28;20212;-57
2021/12/25 06:33:23;;;;;;;47.67;12.17;;;7.90;99.90;;;;;;5053167;28;20227;-57
2021/12/25 06:35:50;;;;;;;53.97;13.77;;;7.90;99.90;;;;;;5053320;28;20177;-57
2021/12/25 06:38:16;;;;;;;67.30;14.43;;;8.00;99.90;;;;;;5053122;28;20185;-57
2021/12/25 06:40:42;;;;;;;73.83;14.23;;;7.80;99.90;;;;;;5053077;28;20161;-57
2021/12/25 06:43:08;;;;;;;82.57;15.00;;;7.80;99.90;;;;;;5053059;28;20184;-57
2021/12/25 06:45:34;;;;;;;74.47;14.60;;;7.80;99.90;;;;;;5051752;28;20173;-57
2021/12/25 06:47:59;;;;;;;120.13;16.03;;;7.80;99.90;;;;;;5053010;28;20235;-57
2021/12/25 06:50:25;;;;;;;79.90;13.60;;;7.80;99.90;;;;;;5052881;28;20709;-57
2021/12/25 06:52:51;;;;;;;39.50;11.07;;;7.90;99.90;;;;;;5053186;28;20711;-57
2021/12/25 06:55:17;;;;;;;41.03;11.03;;;7.90;99.90;;;;;;5052916;28;20698;-57
2021/12/25 06:57:52;;;;;;;29.80;9.07;;;7.90;99.90;;;;;;5052862;28;20188;-57
2021/12/25 07:00:18;;;;;;;43.87;10.67;;;7.90;99.90;;;;;;5052869;28;20184;-57
2021/12/25 07:02:44;;;;;;;35.40;10.30;;;7.90;99.90;;;;;;5052823;28;20551;-57
2021/12/25 07:05:10;;;;;;;36.13;9.27;;;8.00;99.90;;;;;;5052795;28;20205;-57
2021/12/25 07:07:36;;;;;;;30.80;8.23;;;8.00;99.90;;;;;;5052672;28;20176;-57
2021/12/25 07:10:02;;;;;;;36.20;7.13;;;7.90;99.90;;;;;;5052635;28;20233;-57
2021/12/25 07:12:31;;;;;;;29.23;8.10;;;8.00;99.90;;;;;;5051262;28;20273;-57
2021/12/25 07:14:57;;;;;;;29.50;7.37;;;8.10;99.90;;;;;;5052571;28;20181;-57
2021/12/25 07:17:23;;;;;;;32.07;7.80;;;8.10;99.90;;;;;;5052517;28;20264;-57
2021/12/25 07:19:48;;;;;;;39.33;8.00;;;8.10;99.90;;;;;;5052374;28;20592;-57
2021/12/25 07:22:14;;;;;;;29.27;7.30;;;8.10;99.90;;;;;;5052444;28;20169;-57
2021/12/25 07:24:40;;;;;;;30.50;7.77;;;8.20;99.90;;;;;;5049551;28;20188;-61
2021/12/25 07:27:06;;;;;;;87.03;8.67;;;8.20;99.90;;;;;;5052005;28;20539;-57
2021/12/25 07:29:32;;;;;;;32.47;7.40;;;8.20;99.90;;;;;;5051036;28;20228;-57
2021/12/25 07:31:58;;;;;;;29.80;7.30;;;8.20;99.90;;;;;;5052546;28;20233;-58
2021/12/25 07:34:24;;;;;;;24.93;6.77;;;8.30;99.90;;;;;;5052394;28;20173;-58
2021/12/25 07:36:50;;;;;;;33.27;7.73;;;8.30;99.90;;;;;;5052211;28;20641;-58
2021/12/25 07:39:15;;;;;;;26.10;7.10;;;8.30;99.90;;;;;;5052062;28;20253;-58
2021/12/25 07:41:41;;;;;;;26.23;6.37;;;8.30;99.90;;;;;;5052056;28;20554;-58
2021/12/25 07:44:07;;;;;;;61.13;7.60;;;8.30;99.90;;;;;;5052107;28;20177;-58
2021/12/25 07:46:33;;;;;;;144.47;9.53;;;8.30;99.90;;;;;;5052143;28;20655;-58
2021/12/25 07:48:59;;;;;;;24.07;6.43;;;8.30;99.90;;;;;;5052202;28;20173;-58
2021/12/25 07:51:25;;;;;;;28.43;7.10;;;8.30;99.90;;;;;;5051710;28;20601;-58
2021/12/25 07:53:51;;;;;;;34.33;7.13;;;8.40;99.90;;;;;;5051694;28;20173;-58
2021/12/25 07:56:17;;;;;;;27.00;6.10;;;8.40;99.90;;;;;;5051750;28;20173;-58
2021/12/25 07:58:43;;;;;;;86.87;8.70;;;8.40;99.90;;;;;;5051598;28;20624;-58
2021/12/25 08:01:10;;;;;;;35.13;7.30;;;8.50;99.90;;;;;;5051692;28;20260;-58
2021/12/25 08:03:36;;;;;;;42.40;6.87;;;8.50;99.90;;;;;;5051808;28;20227;-58
2021/12/25 08:06:03;;;;;;;27.50;6.90;;;8.50;99.90;;;;;;5050328;28;20518;-58
2021/12/25 08:08:29;;;;;;;40.00;6.63;;;8.50;99.90;;;;;;5051639;28;20173;-58
2021/12/25 08:10:56;;;;;;;32.90;6.73;;;8.50;99.90;;;;;;5051462;28;20821;-58
2021/12/25 08:13:22;;;;;;;27.93;5.43;;;8.50;99.90;;;;;;5051497;28;20259;-58
2021/12/25 08:15:48;;;;;;;27.27;5.90;;;8.50;99.90;;;;;;5051294;28;20557;-58
2021/12/25 08:18:14;;;;;;;30.53;5.90;;;8.50;99.90;;;;;;5051433;28;20173;-58
2021/12/25 08:20:40;;;;;;;35.10;5.67;;;8.50;99.90;;;;;;5051658;28;20189;-58
2021/12/25 08:23:07;;;;;;;34.67;6.87;;;8.60;99.90;;;;;;5051365;28;20166;-58
2021/12/25 08:25:33;;;;;;;46.03;6.80;;;8.60;99.90;;;;;;5051200;28;20256;-58
2021/12/25 08:27:59;;;;;;;31.20;6.50;;;8.60;99.90;;;;;;5050981;28;20315;-58
2021/12/25 08:30:26;;;;;;;37.37;6.83;;;8.70;99.90;;;;;;5051015;28;20231;-58
2021/12/25 08:32:55;;;;;;;44.90;11.07;;;8.70;99.90;;;;;;5051310;28;20228;-58
2021/12/25 08:35:23;;;;;;;38.33;6.80;;;8.70;99.90;;;;;;5051005;28;20643;-58
2021/12/25 08:37:49;;;;;;;42.63;7.27;;;8.60;99.90;;;;;;5051081;28;20174;-58
2021/12/25 08:40:15;;;;;;;38.57;6.37;;;8.70;99.90;;;;;;5050874;28;20252;-58
2021/12/25 08:42:47;;;;;;;39.90;6.33;;;8.70;99.90;;;;;;5050781;28;20173;-58
2021/12/25 08:46:02;;;;;;;25.70;6.10;;;8.70;99.90;;;;;;5051037;28;20181;-58
2021/12/25 08:48:01;;;;;;;23.23;7.20;;;8.70;99.90;;;;;;5043303;28;20188;-58
2021/12/25 08:50:27;;;;;;;34.63;7.60;;;8.70;99.90;;;;;;5051085;28;20208;-58
2021/12/25 08:52:53;;;;;;;44.03;8.10;;;8.70;99.90;;;;;;5050859;28;20255;-58
2021/12/25 08:55:19;;;;;;;35.00;8.93;;;8.70;99.90;;;;;;5051139;28;20271;-58
2021/12/25 08:57:45;;;;;;;26.77;9.20;;;8.80;99.90;;;;;;5050719;28;20165;-58
2021/12/25 09:00:11;;;;;;;38.20;9.30;;;8.80;99.90;;;;;;5050952;28;20169;-58
2021/12/25 09:02:37;;;;;;;32.33;9.40;;;8.80;99.90;;;;;;5050676;28;20209;-58
2021/12/25 09:05:04;;;;;;;41.73;11.53;;;8.70;99.90;;;;;;5050708;28;20193;-58
2021/12/25 09:07:30;;;;;;;40.20;11.00;;;8.80;99.90;;;;;;5050676;28;20185;-57
2021/12/25 09:09:56;;;;;;;28.63;9.73;;;8.90;99.90;;;;;;5050438;28;20212;-56
2021/12/25 09:12:24;;;;;;;39.53;11.67;;;8.80;99.90;;;;;;5050808;28;20264;-56
2021/12/25 09:14:49;;;;;;;40.40;11.90;;;8.80;99.90;;;;;;5050678;28;20181;-56
2021/12/25 09:17:16;;;;;;;53.97;13.00;;;8.90;99.90;;;;;;5050527;28;20513;-56
2021/12/25 09:19:42;;;;;;;38.27;12.20;;;8.90;99.90;;;;;;5050537;28;20226;-56
2021/12/25 09:22:11;;;;;;;41.40;12.13;;;8.90;99.90;;;;;;5050492;28;20201;-56
2021/12/25 09:24:37;;;;;;;31.87;11.73;;;8.90;99.90;;;;;;5049165;28;20268;-56
2021/12/25 09:27:04;;;;;;;40.67;12.73;;;8.90;99.90;;;;;;5050496;28;20174;-56
2021/12/25 09:29:31;;;;;;;35.73;11.77;;;8.90;99.90;;;;;;5050114;28;20225;-56
2021/12/25 09:31:58;;;;;;;31.50;12.57;;;8.90;99.90;;;;;;5048170;28;20189;-57
2021/12/25 09:34:23;;;;;;;32.53;12.77;;;8.90;99.90;;;;;;5050384;28;20177;-57
2021/12/25 09:36:49;;;;;;;36.80;11.77;;;8.90;99.90;;;;;;5050221;28;20173;-57
2021/12/25 09:39:15;;;;;;;36.57;12.07;;;8.80;99.90;;;;;;5050290;28;20655;-57
2021/12/25 09:41:41;;;;;;;43.43;13.40;;;9.00;99.90;;;;;;5050555;28;20176;-57
2021/12/25 09:44:08;;;;;;;39.77;12.67;;;9.00;99.90;;;;;;5050384;28;20169;-57
2021/12/25 09:46:33;;;;;;;30.23;12.13;;;9.00;99.90;;;;;;5050430;28;20177;-57
2021/12/25 09:49:00;;;;;;;36.10;12.63;;;9.20;99.90;;;;;;5050079;28;20662;-57
2021/12/25 09:51:26;;;;;;;33.77;12.20;;;9.00;99.90;;;;;;5050127;28;20180;-57
2021/12/25 09:54:00;;;;;;;34.83;12.17;;;9.00;99.90;;;;;;5053264;28;20185;-57
2021/12/25 09:56:27;;;;;;;38.10;12.93;;;9.00;99.90;;;;;;5054099;28;20252;-57
2021/12/25 09:58:53;;;;;;;34.23;11.70;;;9.10;99.90;;;;;;5053937;28;20165;-57
2021/12/25 10:01:39;;;;;;;35.60;13.63;;;8.80;99.90;;;;;;5053803;28;20177;-57
2021/12/25 10:04:07;;;;;;;38.17;12.70;;;9.10;99.90;;;;;;5053798;28;20180;-57
2021/12/25 10:06:44;;;;;;;36.73;13.17;;;9.00;99.90;;;;;;5053990;28;20242;-57
2021/12/25 10:09:19;;;;;;;34.00;12.20;;;9.10;99.90;;;;;;5053789;28;20192;-57
2021/12/25 10:12:07;;;;;;;34.67;12.77;;;9.10;99.90;;;;;;5053663;28;20180;-57
2021/12/25 10:14:34;;;;;;;31.57;12.07;;;9.10;99.90;;;;;;5053685;28;20780;-57
2021/12/25 10:17:22;;;;;;;35.63;13.07;;;9.20;99.90;;;;;;5053750;28;20193;-57
2021/12/25 10:20:14;;;;;;;35.77;12.10;;;9.20;99.90;;;;;;5053582;28;20165;-57
2021/12/25 10:23:22;;;;;;;32.60;11.57;;;9.30;99.90;;;;;;5053510;28;20169;-57
2021/12/25 10:25:55;;;;;;;30.47;11.47;;;9.20;99.90;;;;;;5053373;28;20196;-57
2021/12/25 10:28:34;;;;;;;31.23;11.90;;;9.30;99.90;;;;;;5053083;28;20260;-57
2021/12/25 10:31:08;;;;;;;33.00;12.37;;;9.30;99.90;;;;;;5053227;28;20670;-57
2021/12/25 10:33:36;;;;;;;29.93;12.57;;;9.40;99.90;;;;;;5053505;28;20201;-57
2021/12/25 10:36:10;;;;;;;27.40;11.23;;;9.40;99.90;;;;;;5053431;28;20177;-57
2021/12/25 10:38:37;;;;;;;34.57;11.43;;;9.30;99.90;;;;;;5053279;28;20173;-57
2021/12/25 10:41:20;;;;;;;25.53;11.23;;;9.30;99.90;;;;;;5053121;28;20651;-57
2021/12/25 10:43:48;;;;;;;25.67;10.97;;;9.30;99.90;;;;;;5053039;28;20647;-57
2021/12/25 10:46:14;;;;;;;26.67;10.90;;;9.40;99.90;;;;;;5053125;28;20172;-57
2021/12/25 10:48:40;;;;;;;24.63;11.87;;;9.30;99.90;;;;;;5053038;28;20201;-57
2021/12/25 10:51:26;;;;;;;32.63;11.60;;;9.30;99.90;;;;;;5053020;28;20240;-57
2021/12/25 10:53:53;;;;;;;27.73;11.83;;;9.40;99.90;;;;;;5052923;28;20173;-57
2021/12/25 10:56:20;;;;;;;31.67;11.70;;;9.20;99.90;;;;;;5051487;28;20170;-57
2021/12/25 10:58:46;;;;;;;27.57;11.17;;;9.40;99.90;;;;;;5052953;28;20177;-57
2021/12/25 11:01:14;;;;;;;25.27;11.17;;;9.40;99.90;;;;;;5052868;28;20644;-57
2021/12/25 11:03:44;;;;;;;27.63;11.97;;;9.30;99.90;;;;;;5052658;28;20165;-57
2021/12/25 11:06:19;;;;;;;28.40;11.43;;;9.40;99.90;;;;;;5052729;28;20173;-57
2021/12/25 11:08:46;;;;;;;26.33;11.50;;;9.40;99.90;;;;;;5052567;28;20695;-57
2021/12/25 11:11:17;;;;;;;29.93;11.03;;;9.40;99.90;;;;;;5052483;28;20228;-57
2021/12/25 11:13:51;;;;;;;27.97;10.50;;;9.50;99.90;;;;;;5052509;28;20205;-57
2021/12/25 11:16:27;;;;;;;24.30;10.17;;;9.50;99.90;;;;;;5052385;28;20177;-57
2021/12/25 11:19:27;;;;;;;25.77;9.83;;;9.50;99.90;;;;;;5052376;28;20173;-57
2021/12/25 11:21:49;;;;;;;20.13;9.57;;;9.50;99.90;;;;;;5052155;28;20640;-57
2021/12/25 11:24:26;;;;;;;22.23;8.97;;;9.50;99.90;;;;;;5052245;28;20169;-57
2021/12/25 11:26:58;;;;;;;21.13;9.03;;;9.50;99.90;;;;;;5052338;28;20263;-57
2021/12/25 11:29:28;;;;;;;26.40;10.10;;;9.50;99.90;;;;;;5051834;28;20229;-57
2021/12/25 11:31:56;;;;;;;19.37;9.77;;;9.50;99.90;;;;;;5052264;28;20271;-57
2021/12/25 11:34:23;;;;;;;21.30;9.10;;;9.50;99.90;;;;;;5052317;28;20200;-57
2021/12/25 11:36:52;;;;;;;26.97;11.07;;;9.50;99.90;;;;;;5052212;28;20191;-57
2021/12/25 11:39:25;;;;;;;23.40;9.23;;;9.40;99.90;;;;;;5052105;28;20252;-57
2021/12/25 11:41:58;;;;;;;22.70;9.70;;;9.50;99.90;;;;;;5051837;28;20212;-57
2021/12/25 11:44:41;;;;;;;25.83;9.17;;;9.60;99.90;;;;;;5051940;28;20671;-57
2021/12/25 11:47:10;;;;;;;26.10;10.80;;;9.50;99.90;;;;;;5051851;28;20671;-56
2021/12/25 11:49:58;;;;;;;24.67;11.13;;;9.60;99.90;;;;;;5051777;28;20213;-57
2021/12/25 11:52:28;;;;;;;27.67;11.50;;;9.60;99.90;;;;;;5051837;28;20180;-57
2021/12/25 12:00:36;;;;;;;33.47;11.90;;;9.60;99.90;;;;;;5038253;28;20189;-57
2021/12/25 12:03:03;;;;;;;24.50;11.37;;;9.60;99.90;;;;;;5051662;28;20180;-57
2021/12/25 12:05:31;;;;;;;31.67;10.87;;;9.60;99.90;;;;;;5051495;28;20659;-57
2021/12/25 12:08:12;;;;;;;24.73;11.60;;;9.60;99.90;;;;;;5051521;28;20659;-57
2021/12/25 12:10:44;;;;;;;28.40;12.07;;;9.60;99.90;;;;;;5049340;28;20208;-57
2021/12/25 12:13:28;;;;;;;27.67;12.00;;;9.60;99.90;;;;;;5050981;28;20260;-57
2021/12/25 12:16:00;;;;;;;27.73;11.23;;;9.60;99.90;;;;;;5051013;28;20184;-57
2021/12/25 12:18:27;;;;;;;25.60;11.53;;;9.50;99.90;;;;;;5051241;28;20181;-57
2021/12/25 12:21:13;;;;;;;28.73;12.23;;;9.50;99.90;;;;;;5051115;28;20177;-57
2021/12/25 12:26:48;;;;;;;22.47;11.17;;;9.60;99.90;;;;;;5051207;28;20201;-56
2021/12/25 12:29:36;;;;;;;34.07;11.47;;;9.60;99.90;;;;;;5050114;28;20308;-56
2021/12/25 12:32:02;;;;;;;30.87;12.43;;;9.60;99.90;;;;;;5035877;28;20663;-56
2021/12/25 12:34:38;;;;;;;24.33;11.13;;;9.60;99.90;;;;;;5050405;28;20196;-58
2021/12/25 12:37:18;;;;;;;26.67;11.70;;;9.60;99.90;;;;;;5050221;28;20176;-56
2021/12/25 12:39:53;;;;;;;27.93;11.70;;;9.50;99.90;;;;;;5050138;28;20654;-58
2021/12/25 12:42:19;;;;;;;25.80;10.67;;;9.20;99.90;;;;;;5050622;28;20173;-58
2021/12/25 12:44:47;;;;;;;27.93;11.90;;;9.50;99.90;;;;;;5050341;28;20169;-56
2021/12/25 12:47:17;;;;;;;22.17;9.57;;;9.50;99.90;;;;;;5050072;28;20177;-58
2021/12/25 12:49:46;;;;;;;32.27;11.87;;;11.10;99.90;;;;;;5049789;28;20296;-58
2021/12/25 12:52:21;;;;;;;27.03;10.47;;;9.50;99.90;;;;;;5049916;28;20236;-58
2021/12/25 12:54:56;;;;;;;31.13;11.40;;;9.50;99.90;;;;;;5049970;28;20192;-58
2021/12/25 12:57:49;;;;;;;27.00;10.60;;;9.50;99.90;;;;;;5049809;28;20176;-56
2021/12/25 13:00:22;;;;;;;27.90;10.43;;;10.20;99.90;;;;;;5049786;28;20529;-58
2021/12/25 13:02:53;;;;;;;28.27;11.33;;;9.60;99.90;;;;;;5049849;28;20181;-58
2021/12/25 13:05:26;;;;;;;28.00;10.77;;;9.60;99.90;;;;;;5049748;28;20170;-57
2021/12/25 13:07:55;;;;;;;29.50;11.77;;;9.60;99.90;;;;;;5049688;28;20517;-57
2021/12/25 13:10:46;;;;;;;28.97;9.93;;;9.60;99.90;;;;;;5049691;28;20236;-57
2021/12/25 13:13:29;;;;;;;26.57;11.90;;;9.50;99.90;;;;;;5049704;28;20177;-57
2021/12/25 13:16:07;;;;;;;23.60;10.00;;;9.60;99.90;;;;;;5049937;28;20181;-57
2021/12/25 13:18:36;;;;;;;24.53;10.23;;;9.60;99.90;;;;;;5049746;28;20185;-57
2021/12/25 13:21:08;;;;;;;25.47;10.77;;;9.50;99.90;;;;;;5049576;28;20177;-58
2021/12/25 13:23:37;;;;;;;24.17;8.30;;;9.50;99.90;;;;;;5049521;28;20176;-57
2021/12/25 13:26:07;;;;;;;24.33;10.20;;;9.50;99.90;;;;;;5049523;28;20213;-57
2021/12/25 13:28:38;;;;;;;21.53;10.13;;;9.50;99.90;;;;;;5009227;28;1245757;-57
2021/12/25 13:31:08;;;;;;;22.47;10.47;;;9.50;99.90;;;;;;5054711;28;20526;-57
2021/12/25 13:33:41;;;;;;;30.00;11.13;;;9.50;99.90;;;;;;5054454;28;20256;-57
2021/12/25 13:36:14;;;;;;;29.00;10.40;;;9.40;99.90;;;;;;5054305;28;20181;-57
2021/12/25 13:38:50;;;;;;;22.50;9.93;;;9.40;99.90;;;;;;5054348;28;20161;-57
2021/12/25 13:41:43;;;;;;;23.47;10.87;;;9.40;99.90;;;;;;5054368;28;20526;-57
2021/12/25 13:44:14;;;;;;;27.07;10.70;;;9.40;99.90;;;;;;5054156;28;20185;-58
2021/12/25 13:46:45;;;;;;;22.53;11.03;;;9.40;99.90;;;;;;5054211;28;20169;-57
2021/12/25 13:49:32;;;;;;;23.10;10.00;;;9.40;99.90;;;;;;5053980;28;20169;-57
2021/12/25 13:52:00;;;;;;;21.97;10.77;;;9.40;99.90;;;;;;5054153;28;20227;-58
2021/12/25 13:54:26;;;;;;;22.03;11.10;;;9.40;99.90;;;;;;5054213;28;20169;-58
2021/12/25 13:56:54;;;;;;;24.60;10.10;;;9.40;99.90;;;;;;5054073;28;20173;-58
2021/12/25 13:59:21;;;;;;;16.47;8.90;;;9.40;99.90;;;;;;5053894;28;20628;-58
2021/12/25 14:01:56;;;;;;;27.00;10.87;;;9.40;99.90;;;;;;5053997;28;20166;-58
2021/12/25 14:04:22;;;;;;;45.83;22.67;;;9.40;99.90;;;;;;5053851;28;20184;-58
2021/12/25 14:06:48;;;;;;;24.13;12.17;;;9.40;99.90;;;;;;5053854;28;20177;-58
2021/12/25 14:09:14;;;;;;;37.50;19.93;;;9.40;99.90;;;;;;5053664;28;20225;-58
2021/12/25 14:11:48;;;;;;;16.53;9.10;;;9.30;99.90;;;;;;5053612;28;20177;-58